CZEM/ZEM METAR and TAF weather

Enter ICAO airport designator
Station Type Date Time Source
CZEM METAR 2018/01/21 20:00 UTC NOAA

CZEM 212000Z 31008KT 15SM FEW015 M21/M25 A3027 RMK SC2 LAST STFD OBS/NEXT 221400 UTC SLP253


Station Type Date Time Source
CZEM Decoded METAR 2018/01/21 20:00 UTC NOAA

Eastmain River Airport, Canada (CZEM) 52-14N 078-31W
Jan 21, 2018 - 03:00 PM EST / 2018.01.21 2000 UTC
Wind: from the NW (310 degrees) at 9 MPH (8 KT):0
Visibility: 15 mile(s):0
Sky conditions: mostly clear
Temperature: -5 F (-21 C)
Windchill: -22 F (-30 C):2
Dew Point: -13 F (-25 C)
Relative Humidity: 70%
Pressure (altimeter): 30.27 in. Hg (1025 hPa)
ob: CZEM 212000Z 31008KT 15SM FEW015 M21/M25 A3027 RMK SC2 LAST STFD OBS/NEXT 221400 UTC SLP253
cycle: 20

Station Type Date Time Source
CZEM TAF UTC NOAA

Error!


Example: see airport list